Time;durP1;ratioP1;P1;durP2;ratioP2;P2;SDS_P1;SDS_P2;PMS_P1;PMS_P2;Temp;Humidity;BMP_temperature;BMP_pressure;BME280_temperature;BME280_humidity;BME280_pressure;Samples;Min_cycle;Max_cycle;Signal;HPM_P1;HPM_P2
2024/01/23 00:01:46;;;;;;;0.32;0.32;;;;;;;6.62;100.00;101549.25;5095590;28;20394;-57
2024/01/23 00:04:11;;;;;;;0.30;0.30;;;;;;;6.63;100.00;101566.41;5095083;28;20107;-57
2024/01/23 00:06:37;;;;;;;0.40;0.40;;;;;;;6.60;100.00;101564.53;5094809;28;20024;-57
2024/01/23 00:09:02;;;;;;;0.30;0.30;;;;;;;6.59;100.00;101581.56;5095550;28;20020;-57
2024/01/23 00:11:27;;;;;;;0.30;0.30;;;;;;;6.61;100.00;101588.47;5095921;28;20028;-57
2024/01/23 00:13:53;;;;;;;0.32;0.32;;;;;;;6.59;100.00;101581.56;5094986;28;20059;-57
2024/01/23 00:16:19;;;;;;;0.25;0.25;;;;;;;6.56;100.00;101586.53;5095841;28;20028;-57
2024/01/23 00:18:44;;;;;;;0.35;0.35;;;;;;;6.58;100.00;101597.75;5096150;28;20031;-57
2024/01/23 00:21:10;;;;;;;0.30;0.30;;;;;;;6.59;100.00;101601.19;5095020;28;20024;-58
2024/01/23 00:23:35;;;;;;;0.40;0.40;;;;;;;6.57;100.00;101600.22;5095993;28;20510;-57
2024/01/23 00:26:00;;;;;;;0.30;0.30;;;;;;;6.60;100.00;101610.66;5095738;28;20528;-57
2024/01/23 00:28:25;;;;;;;0.38;0.38;;;;;;;6.58;100.00;101605.44;5094670;28;20024;-57
2024/01/23 00:30:51;;;;;;;0.35;0.35;;;;;;;6.56;100.00;101601.03;5095585;28;20532;-57
2024/01/23 00:33:16;;;;;;;0.40;0.40;;;;;;;6.54;100.00;101606.03;5095089;28;20043;-57
2024/01/23 00:35:41;;;;;;;0.40;0.40;;;;;;;6.54;100.00;101617.97;5094869;28;20046;-57
2024/01/23 00:38:07;;;;;;;0.40;0.40;;;;;;;6.56;100.00;101622.38;5095825;28;20024;-57
2024/01/23 00:40:33;;;;;;;0.40;0.40;;;;;;;6.55;100.00;101619.75;5095525;28;20024;-57
2024/01/23 00:42:58;;;;;;;0.40;0.40;;;;;;;6.55;100.00;101618.06;5094715;28;20059;-57
2024/01/23 00:45:24;;;;;;;0.30;0.30;;;;;;;6.57;100.00;101621.59;5095091;28;20396;-57
2024/01/23 00:47:49;;;;;;;0.30;0.30;;;;;;;6.57;100.00;101638.63;5095206;28;20023;-57
2024/01/23 00:50:14;;;;;;;0.40;0.40;;;;;;;6.62;100.00;101641.47;5094407;28;20036;-57
2024/01/23 00:52:40;;;;;;;0.40;0.40;;;;;;;6.60;100.00;101626.03;5095361;28;20079;-57
2024/01/23 00:55:05;;;;;;;0.35;0.35;;;;;;;6.56;100.00;101640.31;5095423;28;20464;-57
2024/01/23 00:57:32;;;;;;;0.30;0.30;;;;;;;6.53;100.00;101642.72;5094103;28;20028;-57
2024/01/23 00:59:57;;;;;;;0.30;0.30;;;;;;;6.50;100.00;101662.13;5095021;28;20065;-57
2024/01/23 01:02:23;;;;;;;0.30;0.30;;;;;;;6.49;100.00;101668.03;5093579;28;20024;-57
2024/01/23 01:04:48;;;;;;;0.30;0.30;;;;;;;6.43;100.00;101672.00;5094187;28;20028;-57
2024/01/23 01:07:14;;;;;;;0.30;0.30;;;;;;;6.35;100.00;101662.09;5094886;28;20016;-57
2024/01/23 01:09:39;;;;;;;0.40;0.40;;;;;;;6.30;100.00;101669.50;5094879;28;20016;-57
2024/01/23 01:12:06;;;;;;;0.32;0.32;;;;;;;6.26;100.00;101665.88;5094032;28;20464;-57
2024/01/23 01:14:33;;;;;;;0.40;0.40;;;;;;;6.22;100.00;101676.72;5094559;28;20063;-57
2024/01/23 01:16:59;;;;;;;0.30;0.30;;;;;;;6.19;100.00;101681.63;5094351;28;20052;-58
2024/01/23 01:19:24;;;;;;;0.40;0.40;;;;;;;6.16;100.00;101681.47;5094600;28;20075;-57
2024/01/23 01:21:49;;;;;;;0.40;0.40;;;;;;;6.13;100.00;101696.63;5095018;28;20099;-57
2024/01/23 01:24:14;;;;;;;0.40;0.40;;;;;;;6.09;100.00;101712.56;5093683;28;20384;-57
2024/01/23 01:26:40;;;;;;;0.40;0.40;;;;;;;6.10;100.00;101710.09;5094737;28;20020;-57
2024/01/23 01:29:05;;;;;;;0.40;0.40;;;;;;;6.08;100.00;101721.03;5094571;28;20387;-57
2024/01/23 01:31:30;;;;;;;0.40;0.40;;;;;;;6.00;100.00;101732.50;5093740;28;20081;-57
2024/01/23 01:33:56;;;;;;;0.40;0.40;;;;;;;5.96;100.00;101725.38;5094687;28;20028;-57
2024/01/23 01:36:21;;;;;;;0.40;0.40;;;;;;;5.90;100.00;101734.44;5094389;28;20395;-57
2024/01/23 01:38:46;;;;;;;0.30;0.30;;;;;;;5.82;100.00;101743.28;5093745;28;20020;-57
2024/01/23 01:41:12;;;;;;;0.40;0.40;;;;;;;5.83;100.00;101742.50;5094194;28;20395;-57
2024/01/23 01:43:37;;;;;;;0.35;0.35;;;;;;;5.77;100.00;101757.47;5093914;28;20377;-57
2024/01/23 01:46:12;;;;;;;0.40;0.40;;;;;;;5.73;100.00;101760.63;5093652;28;20471;-57
2024/01/23 01:48:39;;;;;;;0.40;0.40;;;;;;;5.70;100.00;101750.19;5094361;28;20020;-57
2024/01/23 01:51:05;;;;;;;0.40;0.40;;;;;;;5.70;100.00;101742.53;5094180;28;20460;-57
2024/01/23 01:53:31;;;;;;;0.35;0.35;;;;;;;5.71;100.00;101757.09;5093087;28;20024;-57
2024/01/23 01:55:57;;;;;;;0.30;0.30;;;;;;;5.68;100.00;101757.78;5094172;28;20028;-57
2024/01/23 01:58:24;;;;;;;0.30;0.30;;;;;;;5.68;100.00;101762.00;5094006;28;20035;-57
2024/01/23 02:00:52;;;;;;;0.35;0.35;;;;;;;5.69;100.00;101774.00;5093260;28;20060;-57
2024/01/23 02:03:17;;;;;;;0.30;0.30;;;;;;;5.64;100.00;101778.81;5093632;28;20467;-57
2024/01/23 02:05:43;;;;;;;0.40;0.40;;;;;;;5.66;100.00;101789.16;5094115;28;20032;-57
2024/01/23 02:08:08;;;;;;;0.40;0.40;;;;;;;5.65;100.00;101779.72;5093033;28;20028;-57
2024/01/23 02:10:34;;;;;;;0.40;0.40;;;;;;;5.64;100.00;101793.28;5093553;28;20429;-57
2024/01/23 02:12:59;;;;;;;0.40;0.40;;;;;;;5.65;100.00;101789.94;5093348;28;20042;-57
2024/01/23 02:15:24;;;;;;;0.40;0.40;;;;;;;5.59;100.00;101792.97;5092656;28;20463;-57
2024/01/23 02:17:50;;;;;;;0.40;0.40;;;;;;;5.56;100.00;101803.88;5093822;28;20028;-57
2024/01/23 02:20:15;;;;;;;0.30;0.30;;;;;;;5.50;100.00;101795.84;5093077;28;20028;-57
2024/01/23 02:22:40;;;;;;;0.40;0.40;;;;;;;5.48;100.00;101810.19;5093061;28;20024;-57
2024/01/23 02:25:06;;;;;;;0.40;0.40;;;;;;;5.50;100.00;101813.72;5093450;28;20016;-57
2024/01/23 02:27:31;;;;;;;0.40;0.40;;;;;;;5.46;100.00;101811.72;5092455;28;20028;-57
2024/01/23 02:29:56;;;;;;;0.40;0.40;;;;;;;5.48;100.00;101829.75;5093724;28;20492;-57
2024/01/23 02:32:22;;;;;;;0.40;0.40;;;;;;;5.44;100.00;101829.53;5093288;28;20024;-57
2024/01/23 02:34:47;;;;;;;0.40;0.40;;;;;;;5.46;100.00;101827.06;5092673;28;20364;-57
2024/01/23 02:37:12;;;;;;;0.40;0.40;;;;;;;5.44;100.00;101834.66;5093050;28;20023;-57
2024/01/23 02:39:37;;;;;;;0.30;0.30;;;;;;;5.44;100.00;101838.88;5093404;28;20443;-57
2024/01/23 02:42:03;;;;;;;0.30;0.30;;;;;;;5.50;100.00;101853.75;5092699;28;20623;-57
2024/01/23 02:44:28;;;;;;;0.40;0.40;;;;;;;5.49;100.00;101855.41;5092792;28;20052;-57
2024/01/23 02:46:54;;;;;;;0.40;0.40;;;;;;;5.54;100.00;101860.81;5093087;28;20032;-57
2024/01/23 02:49:19;;;;;;;0.40;0.40;;;;;;;5.52;100.00;101860.72;5092244;28;20060;-57
2024/01/23 02:51:44;;;;;;;0.40;0.40;;;;;;;5.50;100.00;101869.09;5093173;28;20026;-57
2024/01/23 02:54:10;;;;;;;0.40;0.40;;;;;;;5.46;100.00;101872.22;5092689;28;20038;-57
2024/01/23 02:56:35;;;;;;;0.40;0.40;;;;;;;5.42;100.00;101868.56;5092304;28;20024;-58
2024/01/23 02:59:00;;;;;;;0.30;0.30;;;;;;;5.39;100.00;101878.59;5093264;28;20031;-57
2024/01/23 03:01:25;;;;;;;0.40;0.40;;;;;;;5.37;100.00;101883.63;5092771;28;20059;-57
2024/01/23 03:03:51;;;;;;;0.40;0.40;;;;;;;5.38;100.00;101895.59;5091903;28;20411;-57
2024/01/23 03:06:17;;;;;;;0.40;0.40;;;;;;;5.42;100.00;101897.59;5092724;28;20463;-57
2024/01/23 03:08:42;;;;;;;0.40;0.40;;;;;;;5.43;100.00;101895.91;5093197;28;20028;-57
2024/01/23 03:11:08;;;;;;;0.40;0.40;;;;;;;5.45;100.00;101902.03;5092043;28;20040;-57
2024/01/23 03:13:33;;;;;;;0.30;0.30;;;;;;;5.46;100.00;101902.91;5092705;28;20051;-57
2024/01/23 03:15:58;;;;;;;0.40;0.40;;;;;;;5.49;100.00;101897.97;5093005;28;20024;-57
2024/01/23 03:18:24;;;;;;;0.30;0.30;;;;;;;5.48;100.00;101907.34;5091927;28;20413;-57
2024/01/23 03:20:50;;;;;;;0.40;0.40;;;;;;;5.50;100.00;101918.56;5092859;28;20028;-57
2024/01/23 03:23:15;;;;;;;0.40;0.40;;;;;;;5.51;100.00;101930.53;5092640;28;20488;-57
2024/01/23 03:25:41;;;;;;;0.40;0.40;;;;;;;5.44;100.00;101941.16;5094369;28;20056;-57
2024/01/23 03:28:06;;;;;;;0.40;0.40;;;;;;;5.41;100.00;101935.81;5097190;28;20020;-57
2024/01/23 03:30:31;;;;;;;0.38;0.38;;;;;;;5.37;100.00;101929.63;5096755;28;20368;-57
2024/01/23 03:32:57;;;;;;;0.40;0.40;;;;;;;5.36;100.00;101924.38;5096210;28;20052;-57
2024/01/23 03:35:24;;;;;;;0.40;0.40;;;;;;;5.32;100.00;101923.31;5096444;28;20077;-57
2024/01/23 03:37:49;;;;;;;0.40;0.40;;;;;;;5.27;100.00;101932.34;5096083;28;20150;-57
2024/01/23 03:40:14;;;;;;;0.30;0.30;;;;;;;5.23;100.00;101938.03;5096456;28;20103;-57
2024/01/23 03:42:40;;;;;;;0.40;0.40;;;;;;;5.18;100.00;101942.81;5096854;28;20028;-57
2024/01/23 03:45:06;;;;;;;0.40;0.40;;;;;;;5.05;100.00;101956.41;5095662;28;20110;-57
2024/01/23 03:47:31;;;;;;;0.30;0.30;;;;;;;5.06;100.00;101957.28;5096529;28;20028;-57
2024/01/23 03:49:57;;;;;;;0.40;0.40;;;;;;;5.01;100.00;101969.75;5096636;28;20020;-57
2024/01/23 03:52:22;;;;;;;0.30;0.30;;;;;;;4.98;100.00;101979.75;5095742;28;20020;-57
2024/01/23 03:54:48;;;;;;;0.40;0.40;;;;;;;4.97;100.00;101985.66;5096351;28;20053;-57
2024/01/23 03:57:14;;;;;;;0.40;0.40;;;;;;;5.01;100.00;101996.94;5096113;28;20111;-57
2024/01/23 03:59:43;;;;;;;0.40;0.40;;;;;;;5.01;100.00;101999.50;5095715;28;20031;-57
2024/01/23 04:02:08;;;;;;;0.40;0.40;;;;;;;4.96;100.00;101991.53;5096497;28;20048;-57
2024/01/23 04:04:34;;;;;;;0.40;0.40;;;;;;;4.92;100.00;101984.44;5096064;28;20051;-57
2024/01/23 04:06:59;;;;;;;0.40;0.40;;;;;;;4.87;100.00;101981.53;5095628;28;20024;-57
2024/01/23 04:09:24;;;;;;;0.40;0.40;;;;;;;4.80;100.00;101979.31;5095723;28;20020;-57
2024/01/23 04:11:50;;;;;;;0.40;0.40;;;;;;;4.76;100.00;101985.00;5096327;28;20020;-57
2024/01/23 04:14:16;;;;;;;0.40;0.40;;;;;;;4.76;100.00;101977.34;5094957;28;20024;-57
2024/01/23 04:16:41;;;;;;;0.40;0.40;;;;;;;4.72;100.00;101980.47;5096237;28;20019;-57
2024/01/23 04:19:07;;;;;;;0.40;0.40;;;;;;;4.68;100.00;101986.13;5096244;28;20028;-57
2024/01/23 04:21:33;;;;;;;0.40;0.40;;;;;;;4.71;100.00;101994.00;5094719;28;20068;-57
2024/01/23 04:23:58;;;;;;;0.40;0.40;;;;;;;4.74;100.00;101990.00;5096591;28;20019;-57
2024/01/23 04:26:23;;;;;;;0.40;0.40;;;;;;;4.73;100.00;102005.22;5095770;28;20087;-57
2024/01/23 04:28:49;;;;;;;0.40;0.40;;;;;;;4.69;100.00;102003.22;5095299;28;20031;-57
2024/01/23 04:31:14;;;;;;;0.45;0.45;;;;;;;4.70;100.00;102012.66;5095703;28;20382;-57
2024/01/23 04:33:39;;;;;;;0.40;0.40;;;;;;;4.64;100.00;102023.31;5095778;28;20398;-57
2024/01/23 04:36:05;;;;;;;0.40;0.40;;;;;;;4.66;100.00;102025.97;5094961;28;20384;-57
2024/01/23 04:38:30;;;;;;;0.40;0.40;;;;;;;4.59;100.00;102034.84;5095261;28;20066;-57
2024/01/23 04:40:56;;;;;;;0.40;0.40;;;;;;;4.57;100.00;102039.84;5095545;28;20020;-57
2024/01/23 04:43:21;;;;;;;0.40;0.40;;;;;;;4.60;100.00;102032.41;5094921;28;20542;-57
2024/01/23 04:45:46;;;;;;;0.40;0.40;;;;;;;4.58;100.00;102040.72;5095708;28;20016;-57
2024/01/23 04:48:12;;;;;;;0.32;0.32;;;;;;;4.56;100.00;102047.41;5094452;28;20096;-57
2024/01/23 04:50:38;;;;;;;0.40;0.40;;;;;;;4.53;100.00;102060.84;5095577;28;20143;-57
2024/01/23 04:53:04;;;;;;;0.40;0.40;;;;;;;4.54;100.00;102061.72;5095340;28;20106;-57
2024/01/23 04:55:29;;;;;;;0.40;0.40;;;;;;;4.50;100.00;102070.81;5094162;28;20422;-57
2024/01/23 04:57:54;;;;;;;0.50;0.50;;;;;;;4.50;100.00;102073.38;5095433;28;20081;-57
2024/01/23 05:00:20;;;;;;;0.40;0.40;;;;;;;4.45;100.00;102082.34;5095101;28;20026;-57
2024/01/23 05:02:45;;;;;;;0.40;0.40;;;;;;;4.41;100.00;102083.78;5094617;28;20406;-57
2024/01/23 05:05:10;;;;;;;0.40;0.40;;;;;;;4.42;100.00;102097.44;5094841;28;20455;-57
2024/01/23 05:07:36;;;;;;;0.40;0.40;;;;;;;4.39;100.00;102100.66;5095099;28;20020;-57
2024/01/23 05:10:04;;;;;;;0.40;0.40;;;;;;;4.39;100.00;102105.75;5094276;28;20032;-57
2024/01/23 05:12:29;;;;;;;0.40;0.40;;;;;;;4.39;100.00;102112.50;5094905;28;20024;-57
2024/01/23 05:14:54;;;;;;;0.40;0.40;;;;;;;4.35;100.00;102123.28;5095240;28;20038;-57
2024/01/23 05:17:19;;;;;;;0.40;0.40;;;;;;;4.33;100.00;102122.28;5093815;28;20017;-57
2024/01/23 05:19:45;;;;;;;0.40;0.40;;;;;;;4.33;100.00;102129.94;5094574;28;20032;-57
2024/01/23 05:22:10;;;;;;;0.30;0.30;;;;;;;4.34;100.00;102129.13;5094608;28;20061;-57
2024/01/23 05:24:35;;;;;;;0.45;0.45;;;;;;;4.35;100.00;102126.72;5093991;28;20035;-57
2024/01/23 05:27:01;;;;;;;0.40;0.40;;;;;;;4.31;100.00;102126.38;5094882;28;20035;-57
2024/01/23 05:29:26;;;;;;;0.40;0.40;;;;;;;4.24;100.00;102137.78;5094624;28;20107;-57
2024/01/23 05:31:52;;;;;;;0.40;0.40;;;;;;;4.22;100.00;102144.41;5093947;28;20059;-57
2024/01/23 05:34:17;;;;;;;0.30;0.30;;;;;;;4.19;100.00;102150.19;5094269;28;20031;-57
2024/01/23 05:36:43;;;;;;;0.40;0.40;;;;;;;4.17;100.00;102151.75;5094518;28;20103;-57
2024/01/23 05:39:08;;;;;;;0.40;0.40;;;;;;;4.16;100.00;102164.34;5093702;28;20153;-57
2024/01/23 05:41:34;;;;;;;0.40;0.40;;;;;;;4.17;100.00;102172.16;5094053;28;20028;-57
2024/01/23 05:43:59;;;;;;;0.40;0.40;;;;;;;4.14;100.00;102182.09;5094270;28;20044;-57
2024/01/23 05:46:24;;;;;;;0.40;0.40;;;;;;;4.11;100.00;102177.66;5093508;28;20038;-57
2024/01/23 05:48:50;;;;;;;0.40;0.40;;;;;;;4.15;100.00;102194.09;5093771;28;20545;-57
2024/01/23 05:51:15;;;;;;;0.38;0.38;;;;;;;4.12;100.00;102198.97;5093660;28;20036;-57
2024/01/23 05:53:40;;;;;;;0.30;0.30;;;;;;;4.07;100.00;102216.47;5093652;28;20430;-57
2024/01/23 05:56:06;;;;;;;0.38;0.38;;;;;;;4.04;100.00;102208.59;5094311;28;20024;-57
2024/01/23 05:58:31;;;;;;;0.30;0.30;;;;;;;4.03;100.00;102208.44;5093335;28;20107;-57
2024/01/23 06:00:57;;;;;;;0.40;0.40;;;;;;;3.93;100.00;102223.03;5093948;28;20038;-57
2024/01/23 06:03:22;;;;;;;0.40;0.40;;;;;;;3.89;100.00;102221.03;5093772;28;20506;-58
2024/01/23 06:05:47;;;;;;;0.40;0.40;;;;;;;3.83;100.00;102223.06;5093488;28;20039;-57
2024/01/23 06:08:13;;;;;;;0.40;0.40;;;;;;;3.84;100.00;102211.22;5093639;28;20024;-57
2024/01/23 06:10:38;;;;;;;0.50;0.50;;;;;;;3.83;100.00;102209.44;5093992;28;20063;-57
2024/01/23 06:13:03;;;;;;;0.38;0.38;;;;;;;3.79;100.00;102213.41;5093125;28;20031;-57
2024/01/23 06:15:31;;;;;;;0.40;0.40;;;;;;;3.81;100.00;102206.78;5093707;28;20166;-57
2024/01/23 06:17:56;;;;;;;0.38;0.38;;;;;;;3.86;100.00;102220.78;5093796;28;20079;-57
2024/01/23 06:20:22;;;;;;;0.47;0.47;;;;;;;3.87;100.00;102226.78;5092682;28;20468;-57
2024/01/23 06:22:47;;;;;;;0.40;0.40;;;;;;;3.89;100.00;102225.25;5093542;28;20020;-57
2024/01/23 06:25:16;;;;;;;0.40;0.40;;;;;;;3.85;100.00;102221.56;5093562;28;20100;-57
2024/01/23 06:27:42;;;;;;;0.40;0.40;;;;;;;3.83;100.00;102233.28;5093036;28;20020;-57
2024/01/23 06:30:11;;;;;;;0.40;0.40;;;;;;;3.85;100.00;102243.59;5093603;28;20066;-57
2024/01/23 06:32:37;;;;;;;0.40;0.40;;;;;;;3.82;100.00;102244.25;5093429;28;20020;-57
2024/01/23 06:35:04;;;;;;;0.40;0.40;;;;;;;3.84;100.00;102249.50;5092728;28;20038;-57
2024/01/23 06:37:29;;;;;;;0.40;0.40;;;;;;;3.84;100.00;102263.13;5092995;28;20063;-57
2024/01/23 06:39:54;;;;;;;0.40;0.40;;;;;;;3.84;100.00;102258.03;5093362;28;20059;-56
2024/01/23 06:42:20;;;;;;;0.40;0.40;;;;;;;3.86;100.00;102256.50;5092284;28;20452;-56
2024/01/23 06:44:45;;;;;;;0.38;0.38;;;;;;;3.87;100.00;102253.16;5093070;28;20044;-56
2024/01/23 06:47:10;;;;;;;0.40;0.40;;;;;;;3.89;100.00;102261.81;5093060;28;20116;-56
2024/01/23 06:49:36;;;;;;;0.40;0.40;;;;;;;3.89;100.00;102255.84;5092361;28;20464;-56
2024/01/23 06:52:01;;;;;;;0.40;0.40;;;;;;;3.90;100.00;102257.59;5093160;28;20020;-56
2024/01/23 06:54:26;;;;;;;0.30;0.30;;;;;;;3.93;100.00;102258.75;5093028;28;20475;-56
2024/01/23 06:56:52;;;;;;;0.45;0.45;;;;;;;3.94;100.00;102254.56;5092334;28;20366;-56
2024/01/23 06:59:17;;;;;;;0.40;0.40;;;;;;;3.97;100.00;102275.19;5092026;28;20032;-56
2024/01/23 07:01:43;;;;;;;0.35;0.35;;;;;;;3.95;100.00;102277.63;5092295;28;20020;-56
2024/01/23 07:04:08;;;;;;;0.40;0.40;;;;;;;3.93;100.00;102284.25;5093031;28;20032;-56
2024/01/23 07:06:33;;;;;;;0.40;0.40;;;;;;;3.95;100.00;102290.38;5092566;28;20387;-56
2024/01/23 07:08:59;;;;;;;0.50;0.50;;;;;;;3.97;100.00;102281.97;5092407;28;20106;-56
2024/01/23 07:11:25;;;;;;;0.40;0.40;;;;;;;3.96;100.00;102275.94;5092904;28;20376;-56
2024/01/23 07:13:51;;;;;;;0.30;0.30;;;;;;;3.94;100.00;102293.69;5092945;28;20379;-56
2024/01/23 07:16:16;;;;;;;0.40;0.40;;;;;;;3.89;100.00;102289.88;5091740;28;20074;-56
2024/01/23 07:18:41;;;;;;;0.40;0.40;;;;;;;3.86;100.00;102291.28;5092820;28;20028;-56
2024/01/23 07:21:09;;;;;;;0.40;0.40;;;;;;;3.81;100.00;102290.94;5092890;28;20087;-56
2024/01/23 07:23:34;;;;;;;0.43;0.43;;;;;;;3.84;100.00;102296.28;5091989;28;20471;-56
2024/01/23 07:26:00;;;;;;;0.40;0.40;;;;;;;3.82;100.00;102290.16;5092919;28;20101;-56
2024/01/23 07:28:25;;;;;;;0.30;0.30;;;;;;;3.83;100.00;102302.13;5092492;28;20020;-56
2024/01/23 07:30:51;;;;;;;0.40;0.40;;;;;;;3.80;100.00;102294.25;5091901;28;20427;-56
2024/01/23 07:33:17;;;;;;;0.40;0.40;;;;;;;3.75;100.00;102311.72;5092300;28;20028;-56
2024/01/23 07:35:42;;;;;;;0.50;0.50;;;;;;;3.79;100.00;102310.31;5092584;28;20035;-56
2024/01/23 07:38:10;;;;;;;0.40;0.40;;;;;;;3.75;100.00;102324.47;5092128;28;20028;-56
2024/01/23 07:40:37;;;;;;;0.50;0.50;;;;;;;3.76;100.00;102327.94;5092716;28;20032;-56
2024/01/23 07:43:02;;;;;;;0.40;0.40;;;;;;;3.74;100.00;102322.69;5092608;28;20099;-56
2024/01/23 07:45:28;;;;;;;0.45;0.45;;;;;;;3.79;100.00;102323.06;5091602;28;20095;-56
2024/01/23 07:47:53;;;;;;;0.30;0.30;;;;;;;3.79;100.00;102325.63;5092592;28;20020;-56
2024/01/23 07:50:18;;;;;;;0.30;0.30;;;;;;;3.81;100.00;102330.84;5092109;28;20046;-56
2024/01/23 07:52:43;;;;;;;0.40;0.40;;;;;;;3.76;100.00;102326.25;5091833;28;20073;-56
2024/01/23 07:55:09;;;;;;;0.50;0.50;;;;;;;3.75;100.00;102327.03;5092660;28;20391;-56
2024/01/23 07:57:34;;;;;;;0.43;0.43;;;;;;;3.77;100.00;102322.94;5092375;28;20210;-56
2024/01/23 07:59:59;;;;;;;0.40;0.40;;;;;;;3.74;100.00;102321.81;5091609;28;20066;-56
2024/01/23 08:02:26;;;;;;;0.50;0.50;;;;;;;3.74;100.00;102326.91;5092162;28;20081;-56
2024/01/23 08:04:51;;;;;;;0.40;0.40;;;;;;;3.76;100.00;102338.13;5092339;28;20032;-56
2024/01/23 08:07:17;;;;;;;0.40;0.40;;;;;;;3.77;100.00;102347.53;5091526;28;20024;-56
2024/01/23 08:09:42;;;;;;;0.40;0.40;;;;;;;3.76;100.00;102356.88;5092424;28;20069;-56
2024/01/23 08:12:08;;;;;;;0.40;0.40;;;;;;;3.73;100.00;102363.38;5094666;28;20073;-56
2024/01/23 08:14:33;;;;;;;0.38;0.38;;;;;;;3.73;100.00;102373.56;5095148;28;20038;-56
2024/01/23 08:17:01;;;;;;;0.40;0.40;;;;;;;3.76;100.00;102381.50;5096105;28;20379;-56
2024/01/23 08:19:27;;;;;;;0.40;0.40;;;;;;;3.71;100.00;102385.31;5094860;28;20024;-56
2024/01/23 08:21:52;;;;;;;0.40;0.40;;;;;;;3.75;100.00;102395.00;5096114;28;20138;-56
2024/01/23 08:24:17;;;;;;;0.50;0.50;;;;;;;3.74;100.00;102398.31;5095637;28;20395;-56
2024/01/23 08:26:43;;;;;;;0.40;0.40;;;;;;;3.76;100.00;102401.88;5095207;28;20028;-56
2024/01/23 08:29:08;;;;;;;0.40;0.40;;;;;;;3.75;100.00;102405.19;5095956;28;20072;-56
2024/01/23 08:31:33;;;;;;;0.30;0.30;;;;;;;3.75;100.00;102410.28;5095535;28;20015;-57
2024/01/23 08:33:59;;;;;;;0.40;0.40;;;;;;;3.74;100.00;102409.38;5094728;28;20379;-56
2024/01/23 08:36:24;;;;;;;0.40;0.40;;;;;;;3.75;100.00;102417.94;5095480;28;20028;-57
2024/01/23 08:38:50;;;;;;;0.40;0.40;;;;;;;3.75;100.00;102415.41;5095551;28;20024;-56
2024/01/23 08:41:15;;;;;;;0.40;0.40;;;;;;;3.78;100.00;102420.75;5094587;28;20036;-56
2024/01/23 08:43:40;;;;;;;0.40;0.40;;;;;;;3.78;100.00;102430.94;5095474;28;20040;-56
2024/01/23 08:46:05;;;;;;;0.40;0.40;;;;;;;3.81;100.00;102432.84;5095464;28;20024;-56
2024/01/23 08:48:31;;;;;;;0.40;0.40;;;;;;;3.84;100.00;102431.44;5094268;28;20066;-56
2024/01/23 08:50:57;;;;;;;0.38;0.38;;;;;;;3.88;100.00;102438.59;5095382;28;20486;-57
2024/01/23 08:53:22;;;;;;;0.30;0.30;;;;;;;3.93;100.00;102436.44;5094839;28;20031;-57
2024/01/23 08:55:47;;;;;;;0.40;0.40;;;;;;;3.97;100.00;102427.38;5094595;28;20082;-57
2024/01/23 08:58:18;;;;;;;0.40;0.40;;;;;;;4.01;100.00;102439.59;5094915;28;20024;-58
2024/01/23 09:00:44;;;;;;;0.40;0.40;;;;;;;4.03;100.00;102438.97;5095196;28;20529;-58
2024/01/23 09:03:10;;;;;;;0.40;0.40;;;;;;;4.10;100.00;102437.78;5094108;28;20406;-59
2024/01/23 09:05:35;;;;;;;0.35;0.35;;;;;;;4.14;100.00;102441.50;5095006;28;20023;-56
2024/01/23 09:08:01;;;;;;;0.38;0.38;;;;;;;4.22;100.00;102446.47;5095123;28;20020;-56
2024/01/23 09:10:27;;;;;;;0.40;0.40;;;;;;;4.27;100.00;102440.06;5094001;28;20028;-57
2024/01/23 09:12:53;;;;;;;0.35;0.35;;;;;;;4.33;100.00;102429.44;5095018;28;20032;-57
2024/01/23 09:15:18;;;;;;;0.30;0.30;;;;;;;4.38;100.00;102427.28;5093856;28;20024;-57
2024/01/23 09:17:43;;;;;;;0.38;0.38;;;;;;;4.44;100.00;102437.97;5093862;28;20020;-56
2024/01/23 09:20:10;;;;;;;0.40;0.40;;;;;;;4.49;100.00;102435.78;5094308;28;20020;-56
2024/01/23 09:22:35;;;;;;;0.43;0.43;;;;;;;4.54;100.00;102450.69;5093790;28;20139;-56
2024/01/23 09:25:03;;;;;;;0.40;0.40;;;;;;;4.63;100.00;102450.53;5094882;28;20116;-56
2024/01/23 09:27:28;;;;;;;0.30;0.30;;;;;;;4.72;100.00;102441.03;5094447;28;20028;-56
2024/01/23 09:29:53;;;;;;;0.35;0.35;;;;;;;4.82;100.00;102423.91;5093809;28;20393;-56
2024/01/23 09:32:19;;;;;;;0.38;0.38;;;;;;;4.88;100.00;102422.72;5093973;28;20119;-56
2024/01/23 09:34:47;;;;;;;0.40;0.40;;;;;;;4.93;100.00;102421.41;5094648;28;20032;-56
2024/01/23 09:37:13;;;;;;;0.40;0.40;;;;;;;4.98;100.00;102418.31;5093270;28;20532;-56
2024/01/23 09:39:38;;;;;;;0.30;0.30;;;;;;;5.06;100.00;102428.38;5094635;28;20036;-56
2024/01/23 09:42:04;;;;;;;0.40;0.40;;;;;;;5.13;100.00;102424.63;5093768;28;20024;-56
2024/01/23 09:44:30;;;;;;;0.40;0.40;;;;;;;5.22;100.00;102430.44;5093006;28;20569;-56
2024/01/23 09:46:57;;;;;;;0.40;0.40;;;;;;;5.36;100.00;102438.25;5094422;28;20020;-56
2024/01/23 09:49:22;;;;;;;0.40;0.40;;;;;;;5.47;100.00;102449.31;5094048;28;20028;-56
2024/01/23 09:51:49;;;;;;;0.40;0.40;;;;;;;5.61;100.00;102439.34;5093476;28;20039;-56
2024/01/23 09:54:14;;;;;;;0.40;0.40;;;;;;;5.73;100.00;102438.50;5093750;28;20432;-56
2024/01/23 09:56:40;;;;;;;0.40;0.40;;;;;;;5.86;100.00;102441.22;5094312;28;20494;-56
2024/01/23 09:59:06;;;;;;;0.40;0.40;;;;;;;6.01;100.00;102443.16;5093372;28;20051;-56
2024/01/23 10:01:33;;;;;;;0.40;0.40;;;;;;;6.17;100.00;102450.28;5093693;28;20023;-56
2024/01/23 10:04:00;;;;;;;0.47;0.47;;;;;;;6.30;100.00;102449.50;5093911;28;20020;-56
2024/01/23 10:06:25;;;;;;;0.40;0.40;;;;;;;6.37;100.00;102446.63;5092963;28;20028;-56
2024/01/23 10:08:51;;;;;;;0.40;0.40;;;;;;;6.43;100.00;102457.31;5093757;28;20280;-56
2024/01/23 10:11:16;;;;;;;0.30;0.30;;;;;;;6.59;100.00;102452.50;5093486;28;20035;-56
2024/01/23 10:13:42;;;;;;;0.40;0.40;;;;;;;6.66;100.00;102450.38;5092969;28;20466;-56
2024/01/23 10:16:10;;;;;;;0.30;0.30;;;;;;;6.64;100.00;102459.66;5093318;28;20020;-56
2024/01/23 10:18:35;;;;;;;0.30;0.30;;;;;;;6.62;100.00;102456.06;5092947;28;20020;-56
2024/01/23 10:21:00;;;;;;;0.40;0.40;;;;;;;6.60;100.00;102453.41;5093683;28;20107;-56
2024/01/23 10:23:27;;;;;;;0.38;0.38;;;;;;;6.71;100.00;102461.84;5093502;28;20023;-56
2024/01/23 10:25:54;;;;;;;0.30;0.30;;;;;;;6.83;100.00;102449.00;5092053;28;20061;-56
2024/01/23 10:28:22;;;;;;;0.30;0.30;;;;;;;6.85;100.00;102453.47;5092146;28;20024;-56
2024/01/23 10:30:47;;;;;;;;;;;;;;;7.03;100.00;102450.41;5093707;28;20020;-56
2024/01/23 10:33:15;;;;;;;0.40;0.40;;;;;;;6.97;100.00;102448.34;5091222;28;20387;-56
2024/01/23 10:35:42;;;;;;;0.40;0.40;;;;;;;6.89;100.00;102452.00;5093240;28;20027;-56
2024/01/23 10:38:13;;;;;;;0.40;0.40;;;;;;;6.95;100.00;102469.50;5093401;28;20027;-56
2024/01/23 10:40:38;;;;;;;0.30;0.30;;;;;;;7.15;100.00;102464.06;5092469;28;20509;-56
2024/01/23 10:43:06;;;;;;;0.30;0.30;;;;;;;7.25;100.00;102466.50;5092925;28;20035;-57
2024/01/23 10:45:32;;;;;;;0.40;0.40;;;;;;;7.27;100.00;102452.91;5093071;28;20028;-57
2024/01/23 10:47:59;;;;;;;0.40;0.40;;;;;;;7.22;100.00;102447.47;5091992;28;20024;-57
2024/01/23 10:50:25;;;;;;;;;;;;;;;7.37;100.00;102452.75;5093237;28;20063;-57
2024/01/23 10:52:53;;;;;;;0.30;0.30;;;;;;;7.31;100.00;102447.19;5093167;28;19955;-57
2024/01/23 10:55:21;;;;;;;0.30;0.30;;;;;;;7.23;100.00;102445.00;5092141;28;20020;-57
2024/01/23 10:57:47;;;;;;;0.32;0.32;;;;;;;7.14;100.00;102443.47;5093077;28;20050;-57
2024/01/23 11:00:16;;;;;;;0.30;0.30;;;;;;;7.20;100.00;102444.78;5093014;28;20020;-57
2024/01/23 11:03:05;;;;;;;0.30;0.30;;;;;;;7.48;100.00;102440.66;5092143;28;20106;-57
2024/01/23 11:05:47;;;;;;;0.40;0.40;;;;;;;7.64;100.00;102447.72;5092798;28;20093;-55
2024/01/23 11:08:23;;;;;;;0.38;0.38;;;;;;;7.49;100.00;102440.75;5091842;28;20475;-55
2024/01/23 11:10:55;;;;;;;0.30;0.30;;;;;;;7.22;100.00;102438.09;5092841;28;20471;-55
2024/01/23 11:13:42;;;;;;;0.30;0.30;;;;;;;7.17;100.00;102429.19;5092657;28;20031;-58
2024/01/23 11:16:09;;;;;;;0.30;0.30;;;;;;;7.07;100.00;102419.97;5092225;28;20448;-56
2024/01/23 11:18:35;;;;;;;0.27;0.27;;;;;;;7.03;100.00;102394.03;5092805;28;20059;-56
2024/01/23 11:21:09;;;;;;;0.30;0.30;;;;;;;7.18;100.00;102397.63;5093137;28;20095;-56